createdAt,value
2023-05-05T00:00:21.345Z,1483.00
2023-05-05T00:01:21.421Z,1485.00
2023-05-05T00:02:21.485Z,1488.00
2023-05-05T00:03:21.520Z,1485.00
2023-05-05T00:04:21.586Z,1473.00
2023-05-05T00:05:21.579Z,1477.00
2023-05-05T00:06:21.648Z,1479.00
2023-05-05T00:07:21.708Z,1483.00
2023-05-05T00:08:21.738Z,1484.00
2023-05-05T00:09:21.752Z,1485.00
2023-05-05T00:10:21.834Z,1470.00
2023-05-05T00:11:21.906Z,1463.00
2023-05-05T00:12:21.909Z,1475.00
2023-05-05T00:13:21.961Z,1482.00
2023-05-05T00:14:22.072Z,1475.00
2023-05-05T00:15:22.065Z,1493.00
2023-05-05T00:16:22.187Z,1481.00
2023-05-05T00:17:22.200Z,1481.00
2023-05-05T00:18:22.210Z,1480.00
2023-05-05T00:19:22.228Z,1483.00
2023-05-05T00:20:22.300Z,1489.00
2023-05-05T00:21:22.376Z,1472.00
2023-05-05T00:22:22.491Z,1473.00
2023-05-05T00:23:22.457Z,1492.00
2023-05-05T00:24:22.486Z,1473.00
2023-05-05T00:25:22.553Z,1473.00
2023-05-05T00:26:22.627Z,1472.00
2023-05-05T00:27:22.674Z,1468.00
2023-05-05T00:28:22.731Z,1463.00
2023-05-05T00:29:22.731Z,1466.00
2023-05-05T00:30:22.780Z,1470.00
2023-05-05T00:31:22.919Z,1476.00
2023-05-05T00:32:22.936Z,1465.00
2023-05-05T00:33:22.952Z,1454.00
2023-05-05T00:34:23.022Z,1458.00
2023-05-05T00:35:23.052Z,1463.00
2023-05-05T00:36:23.121Z,1452.00
2023-05-05T00:37:23.133Z,1456.00
2023-05-05T00:38:23.172Z,1453.00
2023-05-05T00:39:23.231Z,1455.00
2023-05-05T00:40:23.307Z,1454.00
2023-05-05T00:41:23.327Z,1464.00
2023-05-05T00:42:23.390Z,1461.00
2023-05-05T00:43:23.421Z,1459.00
2023-05-05T00:44:23.481Z,1465.00
2023-05-05T00:45:23.538Z,1465.00
2023-05-05T00:46:23.662Z,1447.00
2023-05-05T00:47:23.640Z,1464.00
2023-05-05T00:48:23.673Z,1443.00
2023-05-05T00:49:23.790Z,1454.00
2023-05-05T00:50:23.778Z,1459.00
2023-05-05T00:51:23.817Z,1454.00
2023-05-05T00:52:23.899Z,1452.00
2023-05-05T00:53:23.953Z,1454.00
2023-05-05T00:54:23.992Z,1454.00
2023-05-05T00:55:24.036Z,1452.00
2023-05-05T00:56:24.091Z,1440.00
2023-05-05T00:57:24.492Z,1440.00
2023-05-05T00:58:24.202Z,1429.00
2023-05-05T00:59:24.222Z,1450.00
2023-05-05T01:00:24.241Z,1446.00
2023-05-05T01:01:24.332Z,1427.00
2023-05-05T01:02:24.344Z,1432.00
2023-05-05T01:03:24.483Z,1438.00
2023-05-05T01:04:24.458Z,1439.00
2023-05-05T01:05:24.503Z,1448.00
2023-05-05T01:06:24.943Z,1441.00
2023-05-05T01:07:24.570Z,1424.00
2023-05-05T01:08:24.649Z,1422.00
2023-05-05T01:09:24.674Z,1434.00
2023-05-05T01:10:25.031Z,1432.00
2023-05-05T01:11:24.810Z,1438.00
2023-05-05T01:12:24.818Z,1423.00
2023-05-05T01:13:24.912Z,1422.00
2023-05-05T01:14:24.928Z,1432.00
2023-05-05T01:15:24.954Z,1428.00
2023-05-05T01:16:25.109Z,1422.00
2023-05-05T01:17:25.094Z,1429.00
2023-05-05T01:18:25.129Z,1407.00
2023-05-05T01:19:25.195Z,1423.00
2023-05-05T01:20:25.236Z,1413.00
2023-05-05T01:21:25.271Z,1425.00
2023-05-05T01:22:25.337Z,1431.00
2023-05-05T01:23:25.376Z,1411.00
2023-05-05T01:24:25.448Z,1429.00
2023-05-05T01:25:25.472Z,1413.00
2023-05-05T01:26:25.542Z,1427.00
2023-05-05T01:27:25.971Z,1408.00
2023-05-05T01:28:25.646Z,1409.00
2023-05-05T01:29:25.737Z,1418.00
2023-05-05T01:30:25.749Z,1415.00
2023-05-05T01:31:25.802Z,1422.00
2023-05-05T01:32:25.914Z,1413.00
2023-05-05T01:33:25.885Z,1414.00
2023-05-05T01:34:25.933Z,1420.00
2023-05-05T01:35:26.002Z,1423.00
2023-05-05T01:36:26.057Z,1408.00
2023-05-05T01:37:26.101Z,1401.00
2023-05-05T01:38:26.121Z,1406.00
2023-05-05T01:39:26.179Z,1399.00
2023-05-05T01:40:26.217Z,1403.00
2023-05-05T01:41:26.278Z,1385.00
2023-05-05T01:42:26.323Z,1395.00
2023-05-05T01:43:26.384Z,1407.00
2023-05-05T01:44:26.432Z,1400.00
2023-05-05T01:45:26.481Z,1396.00
2023-05-05T01:46:26.521Z,1395.00
2023-05-05T01:47:26.943Z,1399.00
2023-05-05T01:48:26.671Z,1407.00
2023-05-05T01:49:26.675Z,1402.00
2023-05-05T01:50:26.742Z,1406.00
2023-05-05T01:51:26.800Z,1395.00
2023-05-05T01:52:26.848Z,1413.00
2023-05-05T01:53:26.904Z,1390.00
2023-05-05T01:54:27.003Z,1388.00
2023-05-05T01:55:26.998Z,1404.00
2023-05-05T01:56:27.073Z,1399.00
2023-05-05T01:57:27.128Z,1376.00
2023-05-05T01:58:27.152Z,1403.00
2023-05-05T01:59:27.247Z,1392.00
2023-05-05T02:00:27.292Z,1391.00
2023-05-05T02:01:27.403Z,1380.00
2023-05-05T02:02:27.488Z,1389.00
2023-05-05T02:03:27.546Z,1387.00
2023-05-05T02:04:28.451Z,1372.00
2023-05-05T02:05:27.535Z,1376.00
2023-05-05T02:06:27.610Z,1381.00
2023-05-05T02:07:28.018Z,1378.00
2023-05-05T02:08:27.753Z,1379.00
2023-05-05T02:09:27.765Z,1386.00
2023-05-05T02:10:27.836Z,1379.00
2023-05-05T02:11:27.854Z,1384.00
2023-05-05T02:12:27.946Z,1384.00
2023-05-05T02:13:28.037Z,1368.00
2023-05-05T02:14:28.032Z,1379.00
2023-05-05T02:15:28.091Z,1376.00
2023-05-05T02:16:28.177Z,1376.00
2023-05-05T02:17:28.205Z,1360.00
2023-05-05T02:18:28.266Z,1376.00
2023-05-05T02:19:28.277Z,1375.00
2023-05-05T02:20:28.347Z,1387.00
2023-05-05T02:21:28.396Z,1361.00
2023-05-05T02:22:28.468Z,1373.00
2023-05-05T02:23:28.504Z,1364.00
2023-05-05T02:24:28.564Z,1360.00
2023-05-05T02:25:28.591Z,1369.00
2023-05-05T02:26:28.658Z,1377.00
2023-05-05T02:27:28.715Z,1358.00
2023-05-05T02:28:28.784Z,1369.00
2023-05-05T02:29:28.818Z,1360.00
2023-05-05T02:30:28.893Z,1369.00
2023-05-05T02:31:29.049Z,1357.00
2023-05-05T02:32:29.014Z,1354.00
2023-05-05T02:33:29.020Z,1342.00
2023-05-05T02:34:29.069Z,1356.00
2023-05-05T02:35:29.126Z,1356.00
2023-05-05T02:36:29.189Z,1359.00
2023-05-05T02:37:29.240Z,1350.00
2023-05-05T02:38:29.300Z,1354.00
2023-05-05T02:39:29.362Z,1336.00
2023-05-05T02:40:29.408Z,1366.00
2023-05-05T02:41:29.396Z,1366.00
2023-05-05T02:42:29.393Z,1347.00
2023-05-05T02:43:29.397Z,1357.00
2023-05-05T02:44:29.386Z,1356.00
2023-05-05T02:45:29.344Z,1354.00
2023-05-05T02:46:29.373Z,1355.00
2023-05-05T02:47:29.356Z,1332.00
2023-05-05T02:48:29.361Z,1338.00
2023-05-05T02:49:29.373Z,1347.00
2023-05-05T02:50:29.406Z,1349.00
2023-05-05T02:51:29.480Z,1337.00
2023-05-05T02:52:29.520Z,1352.00
2023-05-05T02:53:29.591Z,1338.00
2023-05-05T02:54:29.665Z,1337.00
2023-05-05T02:55:29.700Z,1337.00
2023-05-05T02:56:29.767Z,1327.00
2023-05-05T02:57:29.837Z,1340.00
2023-05-05T02:58:29.882Z,1327.00
2023-05-05T02:59:29.929Z,1325.00
2023-05-05T03:00:29.994Z,1334.00
2023-05-05T03:01:30.089Z,1314.00
2023-05-05T03:02:30.190Z,1328.00
2023-05-05T03:03:30.264Z,1339.00
2023-05-05T03:04:30.236Z,1333.00
2023-05-05T03:05:30.293Z,1319.00
2023-05-05T03:06:30.351Z,1325.00
2023-05-05T03:07:30.404Z,1340.00
2023-05-05T03:08:30.502Z,1321.00
2023-05-05T03:09:30.543Z,1306.00
2023-05-05T03:10:30.597Z,1321.00
2023-05-05T03:11:30.668Z,1320.00
2023-05-05T03:12:30.743Z,1320.00
2023-05-05T03:13:30.779Z,1318.00
2023-05-05T03:14:32.831Z,1315.00
2023-05-05T03:15:31.044Z,1297.00
2023-05-05T03:16:31.098Z,1303.00
2023-05-05T03:17:31.192Z,1312.00
2023-05-05T03:18:31.260Z,1315.00
2023-05-05T03:19:31.281Z,1317.00
2023-05-05T03:20:31.338Z,1311.00
2023-05-05T03:21:31.396Z,1291.00
2023-05-05T03:22:31.478Z,1303.00
2023-05-05T03:23:31.547Z,1320.00
2023-05-05T03:24:31.592Z,1308.00
2023-05-05T03:25:31.638Z,1313.00
2023-05-05T03:26:31.699Z,1301.00
2023-05-05T03:27:31.758Z,1297.00
2023-05-05T03:28:31.827Z,1302.00
2023-05-05T03:29:31.879Z,1308.00
2023-05-05T03:30:31.950Z,1294.00
2023-05-05T03:31:32.070Z,1306.00
2023-05-05T03:32:32.097Z,1291.00
2023-05-05T03:33:32.190Z,1296.00
2023-05-05T03:34:32.285Z,1305.00
2023-05-05T03:35:32.263Z,1306.00
2023-05-05T03:36:32.346Z,1296.00
2023-05-05T03:37:32.374Z,1301.00
2023-05-05T03:38:32.441Z,1303.00
2023-05-05T03:39:32.507Z,1294.00
2023-05-05T03:40:42.971Z,1302.00
2023-05-05T03:41:33.552Z,1302.00
2023-05-05T03:42:32.568Z,1306.00
2023-05-05T03:43:32.542Z,1295.00
2023-05-05T03:44:32.540Z,1301.00
2023-05-05T03:45:32.620Z,1304.00
2023-05-05T03:46:32.588Z,1295.00
2023-05-05T03:47:32.566Z,1287.00
2023-05-05T03:48:32.510Z,1284.00
2023-05-05T03:49:32.577Z,1286.00
2023-05-05T03:50:32.622Z,1278.00
2023-05-05T03:51:32.705Z,1307.00
2023-05-05T03:52:32.760Z,1301.00
2023-05-05T03:53:32.817Z,1282.00
2023-05-05T03:54:32.887Z,1281.00
2023-05-05T03:55:32.968Z,1284.00
2023-05-05T03:56:33.026Z,1280.00
2023-05-05T03:57:33.050Z,1274.00
2023-05-05T03:58:33.143Z,1275.00
2023-05-05T03:59:33.166Z,1280.00
2023-05-05T04:00:33.237Z,1280.00
2023-05-05T04:01:33.461Z,1282.00
2023-05-05T04:02:33.388Z,1257.00
2023-05-05T04:03:33.604Z,1280.00
2023-05-05T04:04:33.525Z,1269.00
2023-05-05T04:05:33.580Z,1273.00
2023-05-05T04:06:33.597Z,1255.00
2023-05-05T04:07:33.715Z,1273.00
2023-05-05T04:08:33.724Z,1262.00
2023-05-05T04:09:33.792Z,1271.00
2023-05-05T04:10:33.881Z,1265.00
2023-05-05T04:11:33.939Z,1267.00
2023-05-05T04:12:34.023Z,1276.00
2023-05-05T04:13:34.073Z,1253.00
2023-05-05T04:14:34.118Z,1268.00
2023-05-05T04:15:34.149Z,1252.00
2023-05-05T04:16:34.244Z,1253.00
2023-05-05T04:17:34.292Z,1272.00
2023-05-05T04:18:34.334Z,1259.00
2023-05-05T04:19:34.407Z,1265.00
2023-05-05T04:20:34.456Z,1270.00
2023-05-05T04:21:34.529Z,1260.00
2023-05-05T04:22:34.624Z,1259.00
2023-05-05T04:23:34.670Z,1255.00
2023-05-05T04:24:34.743Z,1262.00
2023-05-05T04:25:34.823Z,1262.00
2023-05-05T04:26:34.831Z,1259.00
2023-05-05T04:27:34.916Z,1251.00
2023-05-05T04:28:34.963Z,1246.00
2023-05-05T04:29:35.023Z,1256.00
2023-05-05T04:30:35.097Z,1254.00
2023-05-05T04:31:35.173Z,1252.00
2023-05-05T04:32:35.290Z,1239.00
2023-05-05T04:33:35.272Z,1242.00
2023-05-05T04:34:35.339Z,1238.00
2023-05-05T04:35:35.399Z,1252.00
2023-05-05T04:36:35.442Z,1244.00
2023-05-05T04:37:35.542Z,1244.00
2023-05-05T04:38:35.601Z,1256.00
2023-05-05T04:39:35.629Z,1238.00
2023-05-05T04:40:35.703Z,1237.00
2023-05-05T04:41:35.783Z,1233.00
2023-05-05T04:42:35.824Z,1240.00
2023-05-05T04:43:35.894Z,1248.00
2023-05-05T04:44:35.938Z,1253.00
2023-05-05T04:45:36.008Z,1238.00
2023-05-05T04:46:36.173Z,1246.00
2023-05-05T04:47:36.169Z,1237.00
2023-05-05T04:48:36.205Z,1250.00
2023-05-05T04:49:36.249Z,1231.00
2023-05-05T04:50:36.356Z,1229.00
2023-05-05T04:51:36.374Z,1238.00
2023-05-05T04:52:37.018Z,1225.00
2023-05-05T04:53:36.508Z,1226.00
2023-05-05T04:54:36.579Z,1220.00
2023-05-05T04:55:36.633Z,1232.00
2023-05-05T04:56:36.675Z,1230.00
2023-05-05T04:57:36.737Z,1214.00
2023-05-05T04:58:36.853Z,1213.00
2023-05-05T04:59:36.877Z,1209.00
2023-05-05T05:00:36.947Z,1213.00
2023-05-05T05:01:38.623Z,1223.00
2023-05-05T05:02:37.139Z,1199.00
2023-05-05T05:03:37.335Z,1210.00
2023-05-05T05:04:37.222Z,1212.00
2023-05-05T05:05:37.308Z,1204.00
2023-05-05T05:06:37.333Z,1201.00
2023-05-05T05:07:37.400Z,1190.00
2023-05-05T05:08:37.443Z,1190.00
2023-05-05T05:09:37.546Z,1184.00
2023-05-05T05:10:37.539Z,1187.00
2023-05-05T05:11:37.610Z,1199.00
2023-05-05T05:12:37.737Z,1183.00
2023-05-05T05:13:37.735Z,1176.00
2023-05-05T05:14:37.775Z,1178.00
2023-05-05T05:15:37.891Z,1174.00
2023-05-05T05:16:37.945Z,1159.00
2023-05-05T05:17:38.024Z,1162.00
2023-05-05T05:18:38.013Z,1164.00
2023-05-05T05:19:38.069Z,1168.00
2023-05-05T05:20:38.093Z,1157.00
2023-05-05T05:21:38.129Z,1159.00
2023-05-05T05:22:38.181Z,1149.00
2023-05-05T05:23:38.263Z,1146.00
2023-05-05T05:24:38.278Z,1146.00
2023-05-05T05:25:38.490Z,1157.00
2023-05-05T05:26:38.387Z,1127.00
2023-05-05T05:27:38.430Z,1142.00
2023-05-05T05:28:38.492Z,1134.00
2023-05-05T05:29:38.588Z,1132.00
2023-05-05T05:30:38.593Z,1131.00
2023-05-05T05:31:38.617Z,1131.00
2023-05-05T05:32:39.643Z,1136.00
2023-05-05T05:33:38.700Z,1137.00
2023-05-05T05:34:38.741Z,1160.00
2023-05-05T05:35:38.829Z,1160.00
2023-05-05T05:36:38.820Z,1172.00
2023-05-05T05:37:39.597Z,1165.00
2023-05-05T05:38:38.885Z,1171.00
2023-05-05T05:39:40.173Z,1169.00
2023-05-05T05:40:38.941Z,1192.00
2023-05-05T05:41:39.051Z,1218.00
2023-05-05T05:42:39.052Z,1210.00
2023-05-05T05:43:39.030Z,1221.00
2023-05-05T05:44:39.159Z,1245.00
2023-05-05T05:45:39.244Z,1269.00
2023-05-05T05:46:39.295Z,1292.00
2023-05-05T05:47:39.221Z,1272.00
2023-05-05T05:48:39.197Z,1260.00
2023-05-05T05:49:39.209Z,1272.00
2023-05-05T05:50:39.261Z,1251.00
2023-05-05T05:51:39.276Z,1247.00
2023-05-05T05:52:39.277Z,1199.00
2023-05-05T05:53:39.316Z,1204.00
2023-05-05T05:54:39.388Z,1201.00
2023-05-05T05:55:39.368Z,1184.00
2023-05-05T05:56:39.385Z,1175.00
2023-05-05T05:57:39.386Z,1180.00
2023-05-05T05:58:39.405Z,1159.00
2023-05-05T05:59:39.471Z,1147.00
2023-05-05T06:00:39.460Z,1130.00
2023-05-05T06:01:39.460Z,1150.00
2023-05-05T06:02:39.761Z,1139.00
2023-05-05T06:03:39.735Z,1141.00
2023-05-05T06:04:39.519Z,1141.00
2023-05-05T06:05:39.543Z,1148.00
2023-05-05T06:06:39.616Z,1155.00
2023-05-05T06:07:39.567Z,1165.00
2023-05-05T06:08:40.099Z,1145.00
2023-05-05T06:09:39.618Z,1136.00
2023-05-05T06:10:39.822Z,1148.00
2023-05-05T06:11:39.600Z,1141.00
2023-05-05T06:12:39.632Z,1152.00
2023-05-05T06:13:39.591Z,1135.00
2023-05-05T06:14:39.603Z,1121.00
2023-05-05T06:15:39.648Z,1122.00
2023-05-05T06:16:39.639Z,1121.00
2023-05-05T06:17:39.635Z,1114.00
2023-05-05T06:18:40.247Z,1113.00
2023-05-05T06:19:39.626Z,1099.00
2023-05-05T06:20:39.601Z,1100.00
2023-05-05T06:21:40.622Z,1073.00
2023-05-05T06:22:39.623Z,1090.00
2023-05-05T06:23:39.628Z,1094.00
2023-05-05T06:24:39.627Z,1062.00
2023-05-05T06:25:39.665Z,1044.00
2023-05-05T06:26:40.595Z,974.00
2023-05-05T06:27:39.660Z,973.00
2023-05-05T06:28:40.077Z,1013.00
2023-05-05T06:29:39.583Z,981.00
2023-05-05T06:30:39.596Z,940.00
2023-05-05T06:31:39.823Z,995.00
2023-05-05T06:32:39.673Z,935.00
2023-05-05T06:33:39.660Z,887.00
2023-05-05T06:34:39.686Z,891.00
2023-05-05T06:35:39.634Z,901.00
2023-05-05T06:36:39.694Z,952.00
2023-05-05T06:37:39.669Z,987.00
2023-05-05T06:38:40.102Z,999.00
2023-05-05T06:39:39.665Z,1001.00
2023-05-05T06:40:39.673Z,998.00
2023-05-05T06:41:39.799Z,931.00
2023-05-05T06:42:39.640Z,943.00
2023-05-05T06:43:39.655Z,946.00
2023-05-05T06:44:39.694Z,907.00
2023-05-05T06:45:39.691Z,958.00
2023-05-05T06:46:39.702Z,901.00
2023-05-05T06:47:40.658Z,892.00
2023-05-05T06:48:39.675Z,901.00
2023-05-05T06:49:39.806Z,854.00
2023-05-05T06:50:39.726Z,804.00
2023-05-05T06:51:42.761Z,767.00
2023-05-05T06:52:39.694Z,714.00
2023-05-05T06:53:39.726Z,656.00
2023-05-05T06:54:39.698Z,639.00
2023-05-05T06:55:39.716Z,645.00
2023-05-05T06:56:39.740Z,639.00
2023-05-05T06:57:39.657Z,609.00
2023-05-05T06:58:39.672Z,603.00
2023-05-05T06:59:39.683Z,618.00
2023-05-05T07:00:39.693Z,624.00
2023-05-05T07:01:39.620Z,636.00
2023-05-05T07:02:39.651Z,629.00
2023-05-05T07:03:39.658Z,602.00
2023-05-05T07:04:39.637Z,598.00
2023-05-05T07:05:39.604Z,604.00
2023-05-05T07:06:39.615Z,593.00
2023-05-05T07:07:39.668Z,579.00
2023-05-05T07:08:39.664Z,577.00
2023-05-05T07:09:39.575Z,589.00
2023-05-05T07:10:39.575Z,589.00
2023-05-05T07:11:39.620Z,581.00
2023-05-05T07:12:39.634Z,561.00
2023-05-05T07:13:39.637Z,563.00
2023-05-05T07:14:39.556Z,560.00
2023-05-05T07:15:39.522Z,576.00
2023-05-05T07:16:39.639Z,577.00
2023-05-05T07:17:39.534Z,580.00
2023-05-05T07:18:39.517Z,564.00
2023-05-05T07:19:39.601Z,567.00
2023-05-05T07:20:39.499Z,556.00
2023-05-05T07:21:39.617Z,559.00
2023-05-05T07:22:39.505Z,562.00
2023-05-05T07:23:39.498Z,529.00
2023-05-05T07:24:39.482Z,531.00
2023-05-05T07:25:39.460Z,536.00
2023-05-05T07:26:39.528Z,526.00
2023-05-05T07:27:39.534Z,532.00
2023-05-05T07:28:39.633Z,526.00
2023-05-05T07:29:39.444Z,524.00
2023-05-05T07:30:39.464Z,522.00
2023-05-05T07:31:39.456Z,533.00
2023-05-05T07:32:39.488Z,514.00
2023-05-05T07:33:39.629Z,531.00
2023-05-05T07:34:39.425Z,577.00
2023-05-05T07:35:39.445Z,594.00
2023-05-05T07:36:39.431Z,607.00
2023-05-05T07:37:39.418Z,616.00
2023-05-05T07:38:39.536Z,547.00
2023-05-05T07:39:39.398Z,560.00
2023-05-05T07:40:39.374Z,578.00
2023-05-05T07:41:39.391Z,562.00
2023-05-05T07:42:39.363Z,563.00
2023-05-05T07:43:39.681Z,554.00
2023-05-05T07:44:39.334Z,548.00
2023-05-05T07:45:39.362Z,552.00
2023-05-05T07:46:39.342Z,554.00
2023-05-05T07:47:39.443Z,540.00
2023-05-05T07:48:39.329Z,528.00
2023-05-05T07:49:39.382Z,508.00
2023-05-05T07:50:39.368Z,526.00
2023-05-05T07:51:39.309Z,545.00
2023-05-05T07:53:39.320Z,549.00
2023-05-05T07:54:39.265Z,543.00
2023-05-05T07:55:39.295Z,547.00
2023-05-05T07:56:39.300Z,526.00
2023-05-05T07:57:39.333Z,521.00
2023-05-05T07:58:39.242Z,541.00
2023-05-05T07:59:39.311Z,536.00
2023-05-05T08:00:39.282Z,541.00
2023-05-05T08:01:39.244Z,542.00
2023-05-05T08:02:39.348Z,534.00
2023-05-05T08:03:39.452Z,541.00
2023-05-05T08:04:39.648Z,516.00
2023-05-05T08:05:39.310Z,523.00
2023-05-05T08:06:39.354Z,515.00
2023-05-05T08:07:39.478Z,503.00
2023-05-05T08:08:39.420Z,518.00
2023-05-05T08:09:39.500Z,517.00
2023-05-05T08:10:39.562Z,533.00
2023-05-05T08:11:39.594Z,513.00
2023-05-05T08:12:39.680Z,520.00
2023-05-05T08:13:39.671Z,542.00
2023-05-05T08:14:39.722Z,551.00
2023-05-05T08:15:39.908Z,535.00
2023-05-05T08:16:39.786Z,558.00
2023-05-05T08:17:39.844Z,575.00
2023-05-05T08:18:39.888Z,553.00
2023-05-05T08:19:39.929Z,534.00
2023-05-05T08:20:40.116Z,523.00
2023-05-05T08:21:40.002Z,535.00
2023-05-05T08:22:40.054Z,543.00
2023-05-05T08:23:40.087Z,558.00
2023-05-05T08:24:40.163Z,553.00
2023-05-05T08:25:40.184Z,577.00
2023-05-05T08:26:40.198Z,604.00
2023-05-05T08:27:40.220Z,582.00
2023-05-05T08:28:40.240Z,561.00
2023-05-05T08:29:40.313Z,538.00
2023-05-05T08:30:40.370Z,501.00
2023-05-05T08:31:40.520Z,517.00
2023-05-05T08:32:40.497Z,545.00
2023-05-05T08:33:40.487Z,547.00
2023-05-05T08:34:40.623Z,532.00
2023-05-05T08:35:40.580Z,513.00
2023-05-05T08:36:40.631Z,506.00
2023-05-05T08:37:40.667Z,499.00
2023-05-05T08:38:40.748Z,495.00
2023-05-05T08:39:40.843Z,512.00
2023-05-05T08:40:40.873Z,558.00
2023-05-05T08:41:40.892Z,568.00
2023-05-05T08:42:40.946Z,572.00
2023-05-05T08:43:40.989Z,595.00
2023-05-05T08:44:41.270Z,556.00
2023-05-05T08:45:41.100Z,547.00
2023-05-05T08:46:41.320Z,508.00
2023-05-05T08:47:41.269Z,543.00
2023-05-05T08:48:41.252Z,540.00
2023-05-05T08:49:41.336Z,567.00
2023-05-05T08:50:41.359Z,536.00
2023-05-05T08:51:41.397Z,518.00
2023-05-05T08:52:41.596Z,534.00
2023-05-05T08:53:41.566Z,522.00
2023-05-05T08:54:41.580Z,514.00
2023-05-05T08:55:41.584Z,496.00
2023-05-05T08:56:41.649Z,510.00
2023-05-05T08:57:41.674Z,521.00
2023-05-05T08:58:41.730Z,533.00
2023-05-05T08:59:41.819Z,512.00
2023-05-05T09:00:41.806Z,500.00
2023-05-05T09:01:41.893Z,500.00
2023-05-05T09:02:41.962Z,499.00
2023-05-05T09:03:42.292Z,502.00
2023-05-05T09:04:41.947Z,503.00
2023-05-05T09:05:41.995Z,502.00
2023-05-05T09:06:42.006Z,502.00
2023-05-05T09:07:42.036Z,517.00
2023-05-05T09:08:42.083Z,529.00
2023-05-05T09:09:42.138Z,547.00
2023-05-05T09:10:42.203Z,536.00
2023-05-05T09:11:42.177Z,530.00
2023-05-05T09:12:42.291Z,525.00
2023-05-05T09:13:42.243Z,565.00
2023-05-05T09:14:42.285Z,606.00
2023-05-05T09:15:42.301Z,560.00
2023-05-05T09:16:42.350Z,579.00
2023-05-05T09:17:42.428Z,556.00
2023-05-05T09:18:42.398Z,538.00
2023-05-05T09:19:42.465Z,533.00
2023-05-05T09:20:42.435Z,559.00
2023-05-05T09:21:42.466Z,577.00
2023-05-05T09:22:42.555Z,572.00
2023-05-05T09:23:42.528Z,598.00
2023-05-05T09:24:42.562Z,601.00
2023-05-05T09:25:42.593Z,611.00
2023-05-05T09:26:42.595Z,616.00
2023-05-05T09:27:42.636Z,585.00
2023-05-05T09:28:43.557Z,586.00
2023-05-05T09:29:43.173Z,621.00
2023-05-05T09:30:42.731Z,626.00
2023-05-05T09:31:42.750Z,666.00
2023-05-05T09:32:42.870Z,755.00
2023-05-05T09:33:42.840Z,760.00
2023-05-05T09:34:42.863Z,642.00
2023-05-05T09:35:42.902Z,546.00
2023-05-05T09:36:42.876Z,400.00
2023-05-05T09:37:42.943Z,400.00
2023-05-05T09:38:42.936Z,400.00
2023-05-05T09:39:43.680Z,400.00
2023-05-05T09:40:42.998Z,400.00
2023-05-05T09:41:43.053Z,605.00
2023-05-05T09:42:43.094Z,797.00
2023-05-05T09:43:43.074Z,665.00
2023-05-05T09:44:43.187Z,537.00
2023-05-05T09:45:43.149Z,569.00
2023-05-05T09:46:43.300Z,621.00
2023-05-05T09:47:43.266Z,519.00
2023-05-05T09:48:43.301Z,662.00
2023-05-05T09:49:43.281Z,574.00
2023-05-05T09:50:43.336Z,494.00
2023-05-05T09:51:43.448Z,480.00
2023-05-05T09:52:43.379Z,446.00
2023-05-05T09:53:43.410Z,528.00
2023-05-05T09:54:43.495Z,400.00
2023-05-05T09:55:43.613Z,433.00
2023-05-05T09:56:43.555Z,527.00
2023-05-05T09:57:43.625Z,592.00
2023-05-05T09:58:43.663Z,666.00
2023-05-05T09:59:43.675Z,833.00
2023-05-05T10:00:43.719Z,621.00
2023-05-05T10:01:43.885Z,512.00
2023-05-05T10:02:43.829Z,578.00
2023-05-05T10:03:43.849Z,487.00
2023-05-05T10:04:44.008Z,531.00
2023-05-05T10:05:43.943Z,500.00
2023-05-05T10:06:44.164Z,600.00
2023-05-05T10:07:44.075Z,651.00
2023-05-05T10:08:44.096Z,546.00
2023-05-05T10:09:44.123Z,591.00
2023-05-05T10:10:44.162Z,815.00
2023-05-05T10:11:44.239Z,726.00
2023-05-05T10:12:44.284Z,622.00
2023-05-05T10:13:44.255Z,564.00
2023-05-05T10:14:44.297Z,522.00
2023-05-05T10:15:44.403Z,500.00
2023-05-05T10:16:44.444Z,627.00
2023-05-05T10:17:57.896Z,872.00
2023-05-05T10:18:45.436Z,873.00
2023-05-05T10:19:44.429Z,904.00
2023-05-05T10:20:44.432Z,965.00
2023-05-05T10:21:44.446Z,1054.00
2023-05-05T10:22:44.454Z,1224.00
2023-05-05T10:23:44.420Z,1302.00
2023-05-05T10:24:44.498Z,1257.00
2023-05-05T10:25:44.415Z,1283.00
2023-05-05T10:26:44.382Z,1352.00
2023-05-05T10:27:44.419Z,873.00
2023-05-05T10:28:44.415Z,780.00
2023-05-05T10:29:44.362Z,952.00
2023-05-05T10:30:44.452Z,879.00
2023-05-05T10:31:44.378Z,937.00
2023-05-05T10:33:44.411Z,1159.00
2023-05-05T10:34:44.480Z,1282.00
2023-05-05T10:35:44.368Z,1357.00
2023-05-05T10:36:44.351Z,1434.00
2023-05-05T10:37:44.386Z,1478.00
2023-05-05T10:38:44.348Z,1338.00
2023-05-05T10:39:44.414Z,1288.00
2023-05-05T10:40:44.374Z,1302.00
2023-05-05T10:41:44.332Z,1317.00
2023-05-05T10:42:44.473Z,1375.00
2023-05-05T10:43:44.681Z,1390.00
2023-05-05T10:44:45.189Z,1399.00
2023-05-05T10:45:44.353Z,1476.00
2023-05-05T10:46:45.244Z,1352.00
2023-05-05T10:47:44.357Z,1373.00
2023-05-05T10:48:44.354Z,1294.00
2023-05-05T10:49:44.700Z,1204.00
2023-05-05T10:50:44.278Z,1067.00
2023-05-05T10:51:44.278Z,931.00
2023-05-05T10:52:44.266Z,1023.00
2023-05-05T10:53:44.359Z,1173.00
2023-05-05T10:54:44.260Z,1482.00
2023-05-05T10:55:44.301Z,1753.00
2023-05-05T10:56:44.278Z,1873.00
2023-05-05T10:57:44.243Z,2068.00
2023-05-05T10:58:59.038Z,2179.00
2023-05-05T10:59:45.273Z,2182.00
2023-05-05T11:00:44.263Z,2212.00
2023-05-05T11:01:44.212Z,2289.00
2023-05-05T11:02:44.279Z,2430.00
2023-05-05T11:03:44.242Z,2620.00
2023-05-05T11:04:44.211Z,2730.00
2023-05-05T11:05:45.211Z,2777.00
2023-05-05T11:06:44.186Z,2866.00
2023-05-05T11:07:44.209Z,2974.00
2023-05-05T11:08:44.195Z,3019.00
2023-05-05T11:09:44.190Z,3092.00
2023-05-05T11:10:44.166Z,3145.00
2023-05-05T11:11:44.211Z,3210.00
2023-05-05T11:12:44.725Z,3264.00
2023-05-05T11:13:44.179Z,3314.00
2023-05-05T11:14:44.181Z,3362.00
2023-05-05T11:15:44.146Z,3423.00
2023-05-05T11:16:44.172Z,3420.00
2023-05-05T11:17:44.139Z,3466.00
2023-05-05T11:18:44.124Z,3477.00
2023-05-05T11:19:44.174Z,3485.00
2023-05-05T11:20:44.210Z,3503.00
2023-05-05T11:21:44.202Z,3490.00
2023-05-05T11:22:44.205Z,3443.00
2023-05-05T11:23:45.231Z,3445.00
2023-05-05T11:24:44.236Z,3459.00
2023-05-05T11:25:45.188Z,3474.00
2023-05-05T11:26:44.300Z,3498.00
2023-05-05T11:27:44.418Z,3490.00
2023-05-05T11:28:44.352Z,3497.00
2023-05-05T11:29:44.371Z,3523.00
2023-05-05T11:30:45.245Z,3523.00
2023-05-05T11:31:44.398Z,3537.00
2023-05-05T11:32:44.467Z,3556.00
2023-05-05T11:33:44.473Z,3561.00
2023-05-05T11:34:44.486Z,3575.00
2023-05-05T11:35:44.514Z,3575.00
2023-05-05T11:36:44.527Z,3582.00
2023-05-05T11:37:44.594Z,3587.00
2023-05-05T11:38:44.668Z,3607.00
2023-05-05T11:39:44.645Z,3604.00
2023-05-05T11:40:44.665Z,3611.00
2023-05-05T11:41:44.693Z,3616.00
2023-05-05T11:42:44.728Z,3626.00
2023-05-05T11:43:44.824Z,3618.00
2023-05-05T11:44:44.776Z,3634.00
2023-05-05T11:45:44.800Z,3636.00
2023-05-05T11:46:44.923Z,3624.00
2023-05-05T11:47:44.924Z,3639.00
2023-05-05T11:48:44.926Z,3645.00
2023-05-05T11:49:44.953Z,3637.00
2023-05-05T11:50:45.019Z,3647.00
2023-05-05T11:51:45.016Z,3663.00
2023-05-05T11:52:45.085Z,3654.00
2023-05-05T11:53:45.121Z,3667.00
2023-05-05T11:54:45.144Z,3655.00
2023-05-05T11:55:45.206Z,3675.00
2023-05-05T11:56:45.204Z,3655.00
2023-05-05T11:57:45.246Z,3684.00
2023-05-05T11:58:45.298Z,3666.00
2023-05-05T11:59:45.806Z,3673.00
2023-05-05T12:00:45.349Z,3662.00
2023-05-05T12:01:45.394Z,3676.00
2023-05-05T12:02:45.511Z,3689.00
2023-05-05T12:03:45.960Z,3674.00
2023-05-05T12:04:45.563Z,3676.00
2023-05-05T12:05:45.640Z,3682.00
2023-05-05T12:06:45.617Z,3684.00
2023-05-05T12:07:45.635Z,3688.00
2023-05-05T12:08:45.694Z,3683.00
2023-05-05T12:09:45.807Z,3675.00
2023-05-05T12:10:45.767Z,3681.00
2023-05-05T12:11:45.839Z,3693.00
2023-05-05T12:12:45.870Z,3687.00
2023-05-05T12:13:45.940Z,3684.00
2023-05-05T12:14:45.958Z,3695.00
2023-05-05T12:15:45.997Z,3681.00